Preview of NWS' New Version of Forecast
This preview is not operational and should not be used for support decisions.

Terminal Aerodrome Forecast (TAF)

Issued by National Weather Service (NWS)

                            
000
FTUS41 KGYX 192002 AAC
TAFRKD
TAF AMD
KRKD 192002Z 1920/2018 21006KT 6SM BR BKN002
     FM200000 00000KT 1/2SM FG BKN002
     FM201000 VRB03KT 1SM BR BKN003
     FM201230 30005KT P6SM SKC=